Time;durP1;ratioP1;P1;durP2;ratioP2;P2;SDS_P1;SDS_P2;PMS_P1;PMS_P2;Temp;Humidity;BMP_temperature;BMP_pressure;BME280_temperature;BME280_humidity;BME280_pressure;Samples;Min_cycle;Max_cycle;Signal;HPM_P1;HPM_P2
2022/07/21 00:01:16;;;;;;;9.50;7.93;;;27.90;53.60;;;;;;5052135;28;20527;-53
2022/07/21 00:03:43;;;;;;;7.63;6.87;;;27.90;53.80;;;;;;5053592;28;20444;-55
2022/07/21 00:06:10;;;;;;;8.50;7.53;;;27.90;53.80;;;;;;5056525;28;20432;-49
2022/07/21 00:08:37;;;;;;;10.03;7.40;;;27.80;53.90;;;;;;5056286;28;20511;-46
2022/07/21 00:11:04;;;;;;;12.77;7.60;;;27.80;54.00;;;;;;5056269;28;20455;-48
2022/07/21 00:13:34;;;;;;;7.90;6.57;;;27.70;54.30;;;;;;5056039;28;20547;-51
2022/07/21 00:16:01;;;;;;;9.03;7.57;;;27.70;54.20;;;;;;5048001;28;20730;-55
2022/07/21 00:18:28;;;;;;;7.73;6.93;;;27.70;54.30;;;;;;5048758;28;20432;-51
2022/07/21 00:20:56;;;;;;;9.83;6.93;;;27.60;54.60;;;;;;5052270;28;20436;-55
2022/07/21 00:23:24;;;;;;;11.60;7.70;;;27.60;55.20;;;;;;5043546;28;20531;-51
2022/07/21 00:25:51;;;;;;;11.03;7.57;;;27.50;54.60;;;;;;5041421;28;20527;-54
2022/07/21 00:28:18;;;;;;;8.20;7.03;;;27.50;54.70;;;;;;5042304;28;20440;-50
2022/07/21 00:30:47;;;;;;;8.00;6.87;;;27.50;54.70;;;;;;5050229;28;20482;-49
2022/07/21 00:33:13;;;;;;;8.00;7.13;;;27.50;54.80;;;;;;5042222;28;20490;-55
2022/07/21 00:35:41;;;;;;;9.27;6.67;;;27.50;54.90;;;;;;5052645;28;20475;-52
2022/07/21 00:38:07;;;;;;;8.17;6.77;;;27.40;54.90;;;;;;5055641;28;20484;-48
2022/07/21 00:40:34;;;;;;;9.30;6.70;;;27.40;54.80;;;;;;5055419;28;20467;-53
2022/07/21 00:43:01;;;;;;;7.20;6.60;;;27.40;55.60;;;;;;5055433;28;20436;-50
2022/07/21 00:45:28;;;;;;;9.40;7.60;;;27.40;55.20;;;;;;5055370;28;20496;-48
2022/07/21 00:47:57;;;;;;;11.77;7.33;;;27.30;55.00;;;;;;5055284;28;20471;-49
2022/07/21 00:50:24;;;;;;;8.03;7.23;;;27.30;55.10;;;;;;5055583;28;20432;-48
2022/07/21 00:52:51;;;;;;;9.90;6.77;;;27.30;55.20;;;;;;5055621;28;20496;-50
2022/07/21 00:55:20;;;;;;;10.93;7.90;;;27.30;55.20;;;;;;5055519;28;20503;-51
2022/07/21 00:57:47;;;;;;;7.47;6.77;;;27.30;55.30;;;;;;5055641;28;20527;-51
2022/07/21 01:00:19;;;;;;;8.03;7.23;;;27.30;55.40;;;;;;5055183;28;20488;-52
2022/07/21 01:02:46;;;;;;;9.17;7.30;;;27.20;55.30;;;;;;5056103;28;20436;-50
2022/07/21 01:05:15;;;;;;;8.27;6.40;;;27.20;55.30;;;;;;5056090;28;20443;-48
2022/07/21 01:07:43;;;;;;;7.20;6.57;;;27.20;55.20;;;;;;5055699;28;20440;-52
2022/07/21 01:10:11;;;;;;;9.37;6.50;;;27.20;55.30;;;;;;5055552;28;20523;-48
2022/07/21 01:12:39;;;;;;;11.43;6.70;;;27.20;55.30;;;;;;5055581;28;20444;-45
2022/07/21 01:15:06;;;;;;;7.47;6.77;;;27.20;55.30;;;;;;5055577;28;20463;-53
2022/07/21 01:17:34;;;;;;;9.03;7.70;;;27.20;55.30;;;;;;5056315;28;20413;-49
2022/07/21 01:20:04;;;;;;;8.57;7.20;;;27.20;55.40;;;;;;5055692;28;20432;-52
2022/07/21 01:22:33;;;;;;;8.70;7.17;;;27.10;55.40;;;;;;5055778;28;20448;-51
2022/07/21 01:25:00;;;;;;;9.40;6.33;;;27.10;55.50;;;;;;5056345;28;20443;-52
2022/07/21 01:27:28;;;;;;;7.70;7.00;;;27.10;55.70;;;;;;5056243;28;20470;-53
2022/07/21 01:29:55;;;;;;;7.83;7.07;;;27.00;55.70;;;;;;5055793;28;20445;-49
2022/07/21 01:32:22;;;;;;;9.27;6.97;;;27.00;55.80;;;;;;5054997;28;20464;-51
2022/07/21 01:34:49;;;;;;;7.27;6.57;;;27.00;55.90;;;;;;5055475;28;20539;-48
2022/07/21 01:37:30;;;;;;;7.67;6.90;;;27.00;56.00;;;;;;5055270;28;20451;-51
2022/07/21 01:42:43;;;;;;;10.90;7.10;;;26.90;56.20;;;;;;5055272;28;20423;-48
2022/07/21 01:45:10;;;;;;;10.07;7.80;;;26.90;56.30;;;;;;5058978;28;20432;-47
2022/07/21 01:47:37;;;;;;;9.73;7.07;;;26.90;56.30;;;;;;5059064;28;20444;-45
2022/07/21 01:50:05;;;;;;;8.97;7.50;;;26.90;56.50;;;;;;5058701;28;20514;-47
2022/07/21 01:52:32;;;;;;;8.40;7.50;;;26.90;56.60;;;;;;5058809;28;20428;-45
2022/07/21 01:55:01;;;;;;;10.80;7.30;;;26.80;56.60;;;;;;5058961;28;20502;-50
2022/07/21 01:57:30;;;;;;;8.83;8.03;;;26.80;56.80;;;;;;5058648;28;20444;-51
2022/07/21 01:59:56;;;;;;;7.53;6.37;;;26.70;56.90;;;;;;5058500;28;20436;-52
2022/07/21 02:02:26;;;;;;;10.83;7.77;;;26.70;56.80;;;;;;5058878;28;20494;-47
2022/07/21 02:04:53;;;;;;;9.57;7.80;;;26.70;56.90;;;;;;5058543;28;20455;-43
2022/07/21 02:07:20;;;;;;;11.00;7.53;;;26.60;56.90;;;;;;5058648;28;20472;-48
2022/07/21 02:09:47;;;;;;;10.93;7.00;;;26.60;57.10;;;;;;5058862;28;20440;-48
2022/07/21 02:12:15;;;;;;;8.90;7.10;;;26.60;57.40;;;;;;5058603;28;20461;-45
2022/07/21 02:14:45;;;;;;;8.03;7.17;;;26.50;57.30;;;;;;5058301;28;20486;-52
2022/07/21 02:17:15;;;;;;;13.10;6.80;;;26.50;57.30;;;;;;5058053;28;20459;-51
2022/07/21 02:19:42;;;;;;;8.63;7.47;;;26.50;57.50;;;;;;5058099;28;20424;-51
2022/07/21 02:22:13;;;;;;;7.60;7.00;;;26.40;57.60;;;;;;5058316;28;20478;-51
2022/07/21 02:24:42;;;;;;;10.30;6.90;;;26.40;57.60;;;;;;5057939;28;20488;-49
2022/07/21 02:27:09;;;;;;;8.87;7.97;;;26.40;57.70;;;;;;5058295;28;20479;-48
2022/07/21 02:29:37;;;;;;;9.10;6.40;;;26.30;57.90;;;;;;5058076;28;20484;-47
2022/07/21 02:32:05;;;;;;;17.40;7.70;;;26.30;57.90;;;;;;5057996;28;20454;-48
2022/07/21 02:34:33;;;;;;;10.60;7.20;;;26.20;58.00;;;;;;5058318;28;20572;-51
2022/07/21 02:37:00;;;;;;;8.47;7.67;;;26.20;58.10;;;;;;5058057;28;20506;-49
2022/07/21 02:39:27;;;;;;;12.53;7.07;;;26.20;58.20;;;;;;5057906;28;20658;-48
2022/07/21 02:41:54;;;;;;;6.83;6.23;;;26.20;58.50;;;;;;5057624;28;20455;-51
2022/07/21 02:44:21;;;;;;;8.40;7.13;;;26.20;58.50;;;;;;5057857;28;20425;-53
2022/07/21 02:46:49;;;;;;;12.07;6.50;;;26.10;58.50;;;;;;5057556;28;20460;-50
2022/07/21 02:49:16;;;;;;;9.43;6.73;;;26.10;58.70;;;;;;5057843;28;20506;-53
2022/07/21 02:51:50;;;;;;;8.37;7.00;;;26.10;58.70;;;;;;5057022;28;20520;-53
2022/07/21 02:54:20;;;;;;;8.03;6.67;;;26.10;58.80;;;;;;5057353;28;20899;-50
2022/07/21 02:56:47;;;;;;;11.00;6.40;;;26.10;58.90;;;;;;5057334;28;20465;-51
2022/07/21 02:59:14;;;;;;;6.30;5.70;;;26.00;59.00;;;;;;5057312;28;20488;-51
2022/07/21 03:01:42;;;;;;;7.20;6.50;;;26.00;59.10;;;;;;5057121;28;20490;-54
2022/07/21 03:04:11;;;;;;;6.53;5.80;;;26.00;59.20;;;;;;5057030;28;20450;-50
2022/07/21 03:06:38;;;;;;;6.37;5.67;;;26.00;59.20;;;;;;5056472;28;20456;-51
2022/07/21 03:09:05;;;;;;;6.17;5.57;;;26.00;59.30;;;;;;5057034;28;20460;-50
2022/07/21 03:11:32;;;;;;;7.03;6.30;;;25.90;59.30;;;;;;5056823;28;20754;-51
2022/07/21 03:13:59;;;;;;;9.80;6.60;;;25.90;59.40;;;;;;5057056;28;20487;-43
2022/07/21 03:16:26;;;;;;;8.20;6.10;;;25.90;59.50;;;;;;5056819;28;20459;-51
2022/07/21 03:18:53;;;;;;;6.70;5.70;;;25.90;59.50;;;;;;5056704;28;20440;-44
2022/07/21 03:21:21;;;;;;;7.20;6.50;;;25.90;59.60;;;;;;5056727;28;20456;-48
2022/07/21 03:23:48;;;;;;;6.67;5.67;;;25.80;59.60;;;;;;5054945;28;20492;-53
2022/07/21 03:26:16;;;;;;;7.23;6.47;;;25.80;59.60;;;;;;5054711;28;20468;-47
2022/07/21 03:28:43;;;;;;;6.43;5.80;;;25.80;59.70;;;;;;5054088;28;20948;-52
2022/07/21 03:31:11;;;;;;;7.60;6.03;;;25.80;59.70;;;;;;5052705;28;20472;-49
2022/07/21 03:33:38;;;;;;;9.30;5.70;;;25.80;59.60;;;;;;5053533;28;20475;-49
2022/07/21 03:36:05;;;;;;;9.00;5.40;;;25.80;59.50;;;;;;5054630;28;20458;-45
2022/07/21 03:38:33;;;;;;;12.10;5.93;;;25.80;59.50;;;;;;5055315;28;20464;-52
2022/07/21 03:41:00;;;;;;;7.47;5.97;;;25.80;59.20;;;;;;5052547;28;20482;-54
2022/07/21 03:43:27;;;;;;;6.40;4.63;;;25.80;59.20;;;;;;5054315;28;20467;-51
2022/07/21 03:45:54;;;;;;;7.20;6.50;;;25.80;59.20;;;;;;5053254;28;20522;-54
2022/07/21 03:48:24;;;;;;;7.27;5.50;;;25.80;59.10;;;;;;5054176;28;20496;-49
2022/07/21 03:50:51;;;;;;;8.10;5.40;;;25.80;59.20;;;;;;5054234;28;20421;-46
2022/07/21 03:53:18;;;;;;;10.10;6.83;;;25.80;59.10;;;;;;5045694;28;20558;-55
2022/07/21 03:55:46;;;;;;;6.80;5.90;;;25.80;59.20;;;;;;5052061;28;20495;-49
2022/07/21 03:58:14;;;;;;;6.53;5.90;;;25.80;59.40;;;;;;5053642;28;20448;-52
2022/07/21 04:00:42;;;;;;;10.87;6.03;;;25.80;59.50;;;;;;5054165;28;20479;-48
2022/07/21 04:03:10;;;;;;;6.60;5.10;;;25.80;59.70;;;;;;5055347;28;20524;-51
2022/07/21 04:05:38;;;;;;;7.43;5.23;;;25.80;59.70;;;;;;5054795;28;20524;-53
2022/07/21 04:08:06;;;;;;;6.80;4.87;;;25.70;59.80;;;;;;5055734;28;20446;-51
2022/07/21 04:10:35;;;;;;;6.70;5.00;;;25.70;59.80;;;;;;5055959;28;20468;-55
2022/07/21 04:13:06;;;;;;;10.57;6.20;;;25.70;59.90;;;;;;5056212;28;20488;-49
2022/07/21 04:15:34;;;;;;;6.20;5.43;;;25.70;59.90;;;;;;5056448;28;20463;-48
2022/07/21 04:18:04;;;;;;;6.33;5.70;;;25.70;60.00;;;;;;5056278;28;20452;-53
2022/07/21 04:20:35;;;;;;;6.47;5.70;;;25.70;60.40;;;;;;5055667;28;20463;-50
2022/07/21 04:23:02;;;;;;;9.90;6.40;;;25.60;60.80;;;;;;5056257;28;20468;-50
2022/07/21 04:25:30;;;;;;;6.27;5.30;;;25.50;61.00;;;;;;5055880;28;20420;-49
2022/07/21 04:27:59;;;;;;;8.50;5.57;;;25.50;61.40;;;;;;5055463;28;20549;-46
2022/07/21 04:30:27;;;;;;;9.93;5.93;;;25.50;61.50;;;;;;5055708;28;20483;-48
2022/07/21 04:32:54;;;;;;;10.13;5.43;;;25.50;61.60;;;;;;5055436;28;20488;-48
2022/07/21 04:35:21;;;;;;;10.00;5.43;;;25.50;61.80;;;;;;5055248;28;20502;-51
2022/07/21 04:37:48;;;;;;;8.27;6.37;;;25.50;62.00;;;;;;5055228;28;20467;-51
2022/07/21 04:40:16;;;;;;;8.63;5.27;;;25.40;62.10;;;;;;5055416;28;20504;-50
2022/07/21 04:42:43;;;;;;;10.97;5.60;;;25.40;62.30;;;;;;5054964;28;20452;-49
2022/07/21 04:45:13;;;;;;;7.53;5.40;;;25.40;62.40;;;;;;5055687;28;20484;-52
2022/07/21 04:47:45;;;;;;;9.00;7.10;;;25.40;62.70;;;;;;5055341;28;20524;-48
2022/07/21 04:50:12;;;;;;;8.27;6.50;;;25.30;62.80;;;;;;5055326;28;20448;-54
2022/07/21 04:52:41;;;;;;;9.33;6.77;;;25.30;63.00;;;;;;5054853;28;20932;-51
2022/07/21 04:55:10;;;;;;;8.85;6.30;;;25.40;63.10;;;;;;5054388;28;20437;-47
2022/07/21 04:57:41;;;;;;;7.60;6.20;;;25.40;63.50;;;;;;5054436;28;20501;-49
2022/07/21 05:00:14;;;;;;;10.17;7.10;;;25.50;62.70;;;;;;5055070;28;20233;-55
2022/07/21 05:02:41;;;;;;;13.50;5.43;;;25.50;62.50;;;;;;5055103;28;20463;-50
2022/07/21 05:05:10;;;;;;;7.40;6.17;;;25.50;64.50;;;;;;5089576;23;20504;-45
2022/07/21 05:07:37;;;;;;;10.30;7.27;;;25.40;63.50;;;;;;5015889;28;20450;-40
2022/07/21 05:10:06;;;;;;;11.07;7.73;;;25.40;65.20;;;;;;5016060;28;20430;-48
2022/07/21 05:12:33;;;;;;;11.17;8.63;;;25.30;64.30;;;;;;5015431;28;20513;-43
2022/07/21 05:14:59;;;;;;;10.13;9.10;;;25.20;65.60;;;;;;5015926;28;20529;-45
2022/07/21 05:17:27;;;;;;;11.80;9.93;;;25.20;66.80;;;;;;5017407;28;20446;-43
2022/07/21 05:19:54;;;;;;;13.40;12.03;;;25.20;68.10;;;;;;5020126;28;20442;-47
2022/07/21 05:22:22;;;;;;;13.90;11.97;;;25.10;68.50;;;;;;5019901;28;20473;-44
2022/07/21 05:24:49;;;;;;;14.50;11.47;;;25.20;69.10;;;;;;5019929;28;20514;-46
2022/07/21 05:27:16;;;;;;;14.17;12.47;;;25.20;69.50;;;;;;5020044;28;20441;-42
2022/07/21 05:29:42;;;;;;;19.17;12.63;;;25.10;69.50;;;;;;5019907;28;20461;-44
2022/07/21 05:32:09;;;;;;;13.90;12.40;;;25.10;70.10;;;;;;5019872;28;20466;-46
2022/07/21 05:34:36;;;;;;;15.63;11.80;;;25.10;70.70;;;;;;5019620;28;20483;-43
2022/07/21 05:37:03;;;;;;;21.53;13.80;;;25.10;71.00;;;;;;5020317;28;20498;-42
2022/07/21 05:39:34;;;;;;;15.93;12.53;;;25.10;71.00;;;;;;5020153;28;20470;-48
2022/07/21 05:42:01;;;;;;;16.30;14.60;;;25.10;71.80;;;;;;5010934;28;20470;-46
2022/07/21 05:44:28;;;;;;;22.27;15.83;;;25.00;72.50;;;;;;5009565;28;20442;-50
2022/07/21 05:46:55;;;;;;;16.07;13.90;;;25.00;73.30;;;;;;5005665;28;20595;-54
2022/07/21 05:49:22;;;;;;;16.23;14.60;;;25.00;74.30;;;;;;5008231;28;20470;-52
2022/07/21 05:51:48;;;;;;;16.73;13.60;;;24.90;75.10;;;;;;5008998;28;20426;-52
2022/07/21 05:54:15;;;;;;;14.70;13.20;;;24.80;76.40;;;;;;5007880;28;20542;-52
2022/07/21 05:56:44;;;;;;;19.03;13.80;;;24.80;77.30;;;;;;5005808;28;20476;-50
2022/07/21 05:59:10;;;;;;;20.10;15.10;;;24.90;77.90;;;;;;5007929;28;20450;-48
2022/07/21 06:01:37;;;;;;;23.33;16.70;;;24.90;78.40;;;;;;5006607;28;20460;-50
2022/07/21 06:04:09;;;;;;;17.47;15.50;;;24.90;79.70;;;;;;5009472;28;20480;-47
2022/07/21 06:06:36;;;;;;;18.77;14.50;;;24.90;80.90;;;;;;5010045;28;20457;-44
2022/07/21 06:09:06;;;;;;;18.33;14.70;;;25.00;81.60;;;;;;5004547;28;20518;-51
2022/07/21 06:11:33;;;;;;;17.17;15.37;;;25.00;82.40;;;;;;5006478;28;20514;-44
2022/07/21 06:14:04;;;;;;;18.40;14.30;;;25.00;84.00;;;;;;5009754;28;20553;-46
2022/07/21 06:16:31;;;;;;;16.30;13.90;;;25.00;84.80;;;;;;5010791;28;20466;-47
2022/07/21 06:18:59;;;;;;;15.63;14.10;;;25.00;85.80;;;;;;5012135;28;20450;-46
2022/07/21 06:21:26;;;;;;;22.03;14.47;;;25.00;87.20;;;;;;5010714;28;20475;-48
2022/07/21 06:23:53;;;;;;;15.97;14.17;;;25.10;88.30;;;;;;5008766;28;20445;-49
2022/07/21 06:26:20;;;;;;;18.77;16.20;;;25.00;89.30;;;;;;5006173;28;20466;-47
2022/07/21 06:28:46;;;;;;;16.37;14.70;;;25.10;89.20;;;;;;5005585;28;20453;-46
2022/07/21 06:31:15;;;;;;;17.10;14.10;;;25.30;89.00;;;;;;5003226;28;20481;-52
2022/07/21 06:33:41;;;;;;;14.77;13.20;;;25.30;89.70;;;;;;5006853;28;20458;-49
2022/07/21 06:36:09;;;;;;;16.20;14.47;;;25.40;89.80;;;;;;5003751;28;20473;-48
2022/07/21 06:38:36;;;;;;;17.77;14.40;;;25.40;90.40;;;;;;5006363;28;20446;-49
2022/07/21 06:41:03;;;;;;;18.10;15.33;;;25.40;90.60;;;;;;5006103;28;20446;-47
2022/07/21 06:43:30;;;;;;;17.77;14.77;;;25.40;90.80;;;;;;5006358;28;20465;-49
2022/07/21 06:45:57;;;;;;;16.47;13.87;;;25.40;90.70;;;;;;5006585;28;20532;-44
2022/07/21 06:48:26;;;;;;;17.77;14.03;;;25.40;90.90;;;;;;5007051;28;20542;-50
2022/07/21 06:50:54;;;;;;;16.37;14.40;;;25.40;91.00;;;;;;5004873;28;20450;-51
2022/07/21 06:53:21;;;;;;;17.40;15.63;;;25.40;91.30;;;;;;5008851;28;20466;-52
2022/07/21 06:55:51;;;;;;;16.97;12.60;;;25.40;91.80;;;;;;5008075;28;20482;-50
2022/07/21 06:58:20;;;;;;;18.10;13.60;;;25.40;91.50;;;;;;4992950;28;20545;-49
2022/07/21 07:00:48;;;;;;;15.90;13.80;;;25.50;92.00;;;;;;5002226;28;20513;-46
2022/07/21 07:03:16;;;;;;;25.40;13.60;;;25.50;91.60;;;;;;5002779;28;20477;-55
2022/07/21 07:05:46;;;;;;;19.03;13.43;;;25.50;91.60;;;;;;5002394;28;20461;-45
2022/07/21 07:08:13;;;;;;;18.00;13.77;;;25.60;91.50;;;;;;4988482;28;20479;-52
2022/07/21 07:10:40;;;;;;;14.97;13.47;;;25.60;91.30;;;;;;4988832;28;20527;-45
2022/07/21 07:13:15;;;;;;;15.33;13.27;;;25.70;91.40;;;;;;5005646;28;20453;-50
2022/07/21 07:15:42;;;;;;;14.30;12.90;;;25.80;90.90;;;;;;5002347;28;20906;-50
2022/07/21 07:18:09;;;;;;;16.10;12.53;;;25.80;91.00;;;;;;5003012;28;20477;-48
2022/07/21 07:20:36;;;;;;;17.60;12.40;;;25.90;91.50;;;;;;5005826;28;20470;-49
2022/07/21 07:23:04;;;;;;;17.03;14.03;;;26.10;91.40;;;;;;5005122;28;20554;-49
2022/07/21 07:25:31;;;;;;;18.63;12.53;;;26.80;87.20;;;;;;5002832;28;20446;-46
2022/07/21 07:27:58;;;;;;;16.93;14.60;;;27.80;80.10;;;;;;5005204;28;20465;-47
2022/07/21 07:30:25;;;;;;;16.10;13.77;;;29.00;73.30;;;;;;5004461;28;20481;-47
2022/07/21 07:32:52;;;;;;;16.33;13.77;;;30.10;67.90;;;;;;5004027;28;20445;-46
2022/07/21 07:35:19;;;;;;;17.07;14.33;;;31.20;63.70;;;;;;5003582;28;20497;-49
2022/07/21 07:37:47;;;;;;;13.47;12.10;;;32.10;60.70;;;;;;4992393;28;20467;-50
2022/07/21 07:40:17;;;;;;;14.57;13.00;;;33.20;57.00;;;;;;4984342;28;20451;-51
2022/07/21 07:42:45;;;;;;;12.03;10.83;;;33.70;55.30;;;;;;4987157;28;20477;-47
2022/07/21 07:45:13;;;;;;;13.20;10.90;;;34.20;54.20;;;;;;4988303;28;20445;-50
2022/07/21 07:47:41;;;;;;;13.10;11.80;;;34.50;52.80;;;;;;4986363;28;20486;-48
2022/07/21 07:50:12;;;;;;;14.43;12.93;;;34.60;52.60;;;;;;4989571;28;20472;-47
2022/07/21 07:52:40;;;;;;;14.73;12.60;;;34.90;52.00;;;;;;5005215;28;20497;-45
2022/07/21 07:55:10;;;;;;;13.27;12.13;;;35.40;51.60;;;;;;5012285;28;20486;-45
2022/07/21 07:57:38;;;;;;;14.70;13.03;;;35.80;50.80;;;;;;5005731;28;20514;-48
2022/07/21 08:00:08;;;;;;;14.60;12.30;;;36.30;50.10;;;;;;5003812;28;20454;-47
2022/07/21 08:02:35;;;;;;;15.30;13.37;;;36.20;49.40;;;;;;5005079;28;20466;-50
2022/07/21 08:05:03;;;;;;;13.20;12.00;;;35.60;49.80;;;;;;5001803;28;20856;-46
2022/07/21 08:07:29;;;;;;;15.37;12.50;;;34.90;50.50;;;;;;4995893;28;20464;-51
2022/07/21 08:09:57;;;;;;;12.20;11.00;;;33.90;52.10;;;;;;5002402;28;20473;-48
2022/07/21 08:12:25;;;;;;;16.27;12.30;;;33.10;53.60;;;;;;5015232;28;20466;-41
2022/07/21 08:14:53;;;;;;;13.53;12.20;;;32.40;54.80;;;;;;5016519;28;20492;-45
2022/07/21 08:17:32;;;;;;;13.33;11.97;;;31.70;56.20;;;;;;5007921;28;20533;-46
2022/07/21 08:19:59;;;;;;;14.00;12.70;;;31.10;57.50;;;;;;5011154;28;20471;-45
2022/07/21 08:22:25;;;;;;;16.80;12.43;;;30.60;58.90;;;;;;5013622;28;20517;-46
2022/07/21 08:24:54;;;;;;;14.33;13.03;;;30.30;59.10;;;;;;5015817;28;20489;-46
2022/07/21 08:27:21;;;;;;;14.63;11.13;;;30.20;59.70;;;;;;5016832;28;20466;-43
2022/07/21 08:29:49;;;;;;;13.90;12.33;;;30.30;59.50;;;;;;5017026;28;20498;-42
2022/07/21 08:32:18;;;;;;;14.27;11.37;;;30.50;59.20;;;;;;5016789;28;20457;-52
2022/07/21 08:34:45;;;;;;;13.17;11.53;;;30.60;59.10;;;;;;5017687;28;20438;-54
2022/07/21 08:37:12;;;;;;;12.00;10.27;;;30.70;58.90;;;;;;5017084;28;20434;-50
2022/07/21 08:39:39;;;;;;;13.07;11.00;;;30.60;58.50;;;;;;5016567;28;20476;-51
2022/07/21 08:42:08;;;;;;;12.20;11.00;;;30.60;59.00;;;;;;5015119;28;20466;-48
2022/07/21 08:44:35;;;;;;;12.87;11.43;;;30.80;58.80;;;;;;5004295;28;20493;-45
2022/07/21 08:47:02;;;;;;;12.47;11.17;;;30.90;58.70;;;;;;5017060;28;20690;-48
2022/07/21 08:49:32;;;;;;;12.57;11.27;;;31.20;58.40;;;;;;5015137;28;20441;-50
2022/07/21 08:51:59;;;;;;;12.20;10.93;;;31.30;58.40;;;;;;5015833;28;20530;-51
2022/07/21 08:54:26;;;;;;;13.13;11.20;;;31.70;58.30;;;;;;5016169;28;20426;-45
2022/07/21 08:56:54;;;;;;;12.73;11.53;;;32.90;56.30;;;;;;5016162;28;20489;-46
2022/07/21 08:59:22;;;;;;;21.63;11.90;;;33.90;54.10;;;;;;5015971;28;20458;-45
2022/07/21 09:01:49;;;;;;;11.33;10.13;;;34.70;52.90;;;;;;5015942;28;20458;-45
2022/07/21 09:04:24;;;;;;;12.73;11.53;;;35.60;51.40;;;;;;5015764;28;20478;-46
2022/07/21 09:06:57;;;;;;;12.13;10.80;;;36.50;49.60;;;;;;5015794;28;20521;-45
2022/07/21 09:09:24;;;;;;;12.37;11.17;;;37.00;48.90;;;;;;5015957;28;20454;-44
2022/07/21 09:11:51;;;;;;;11.33;10.23;;;37.30;48.10;;;;;;5016483;28;20426;-44
2022/07/21 09:14:21;;;;;;;11.80;10.57;;;37.20;48.00;;;;;;5015729;28;20464;-45
2022/07/21 09:16:50;;;;;;;12.27;11.13;;;37.00;48.30;;;;;;5015756;28;20470;-47
2022/07/21 09:19:20;;;;;;;11.67;10.50;;;37.00;48.20;;;;;;5015767;28;20422;-48
2022/07/21 09:21:48;;;;;;;11.90;10.80;;;37.30;47.90;;;;;;5015792;28;20509;-46
2022/07/21 09:24:19;;;;;;;12.70;10.70;;;37.50;47.10;;;;;;5016043;28;20461;-45
2022/07/21 09:27:09;;;;;;;12.30;11.10;;;37.00;47.50;;;;;;5016233;28;20454;-44
2022/07/21 09:29:47;;;;;;;14.33;10.30;;;36.00;48.50;;;;;;5015827;28;20446;-50
2022/07/21 09:32:22;;;;;;;11.47;10.37;;;35.20;50.00;;;;;;5016512;28;20462;-46
2022/07/21 09:34:52;;;;;;;11.37;10.30;;;35.10;50.70;;;;;;5017209;28;20449;-45
2022/07/21 09:37:19;;;;;;;11.20;10.03;;;35.20;50.90;;;;;;5016617;28;20548;-42
2022/07/21 09:39:50;;;;;;;12.00;9.97;;;35.50;50.30;;;;;;5015978;28;20473;-48
2022/07/21 09:42:20;;;;;;;14.87;9.10;;;36.20;49.70;;;;;;5015497;28;20520;-44
2022/07/21 09:44:50;;;;;;;10.13;9.10;;;36.80;47.80;;;;;;5016064;28;20462;-47
2022/07/21 09:47:19;;;;;;;9.73;8.83;;;36.50;47.50;;;;;;5016202;28;20434;-48
2022/07/21 09:49:46;;;;;;;9.23;8.37;;;35.80;48.30;;;;;;5015792;28;20466;-42
2022/07/21 09:52:35;;;;;;;10.77;8.20;;;35.50;49.20;;;;;;5016398;28;20505;-49
2022/07/21 09:55:05;;;;;;;8.50;7.70;;;35.60;49.10;;;;;;5012193;28;20486;-45
2022/07/21 09:57:33;;;;;;;8.60;7.40;;;35.80;48.30;;;;;;5016214;28;20438;-50
2022/07/21 10:00:02;;;;;;;8.83;7.93;;;35.80;49.00;;;;;;5015432;28;20443;-48
2022/07/21 10:02:30;;;;;;;9.27;8.37;;;35.60;48.80;;;;;;5015284;28;20477;-46
2022/07/21 10:05:00;;;;;;;9.97;8.97;;;35.10;49.60;;;;;;5017860;28;20548;-49
2022/07/21 10:07:27;;;;;;;7.53;6.83;;;34.70;49.90;;;;;;5019079;28;20497;-51
2022/07/21 10:09:55;;;;;;;8.17;7.27;;;34.20;50.20;;;;;;5018557;28;20449;-46
2022/07/21 10:12:25;;;;;;;9.63;8.00;;;33.90;50.60;;;;;;5018736;28;20465;-42
2022/07/21 10:14:52;;;;;;;7.90;7.17;;;33.60;52.40;;;;;;5019163;28;20481;-45
2022/07/21 10:17:22;;;;;;;7.63;6.77;;;33.60;52.00;;;;;;5019064;28;20504;-47
2022/07/21 10:19:58;;;;;;;8.03;6.80;;;33.50;52.20;;;;;;5018343;28;20458;-43
2022/07/21 10:22:50;;;;;;;11.93;7.60;;;33.20;52.20;;;;;;5018574;28;20430;-44
2022/07/21 10:25:18;;;;;;;10.20;7.77;;;32.80;52.90;;;;;;5018760;28;20441;-49
2022/07/21 10:28:20;;;;;;;8.90;7.53;;;32.70;53.40;;;;;;5018951;28;20474;-46
2022/07/21 10:30:54;;;;;;;7.17;6.57;;;32.20;53.80;;;;;;5018828;28;20461;-45
2022/07/21 10:33:23;;;;;;;7.83;6.30;;;32.00;54.10;;;;;;5018956;28;20434;-46
2022/07/21 10:35:51;;;;;;;6.67;5.70;;;31.70;54.30;;;;;;5018209;28;20466;-45
2022/07/21 10:38:30;;;;;;;7.97;7.17;;;31.50;54.80;;;;;;5018000;28;20454;-46
2022/07/21 10:40:58;;;;;;;7.60;6.93;;;31.30;55.20;;;;;;5018259;28;20457;-43
2022/07/21 10:43:43;;;;;;;7.77;6.60;;;31.00;56.10;;;;;;5018145;28;20446;-46
2022/07/21 10:46:36;;;;;;;8.70;6.70;;;30.80;56.70;;;;;;5018609;28;20516;-47
2022/07/21 10:49:05;;;;;;;6.50;5.90;;;30.60;57.20;;;;;;5010343;28;20457;-49
2022/07/21 10:51:35;;;;;;;8.20;7.40;;;30.50;57.00;;;;;;5017980;28;20458;-44
2022/07/21 10:54:22;;;;;;;8.10;6.50;;;30.30;57.30;;;;;;5017933;28;20438;-51
2022/07/21 10:56:49;;;;;;;6.70;6.07;;;30.10;57.20;;;;;;5018190;28;20513;-46
2022/07/21 10:59:17;;;;;;;5.63;5.00;;;30.10;57.70;;;;;;5017787;28;20468;-46
2022/07/21 11:01:44;;;;;;;6.60;5.90;;;30.20;57.20;;;;;;5017879;28;20438;-48
2022/07/21 11:04:16;;;;;;;7.73;6.53;;;30.10;57.10;;;;;;5017806;28;20506;-45
2022/07/21 11:06:43;;;;;;;6.30;5.70;;;30.10;57.40;;;;;;5017563;28;20461;-48
2022/07/21 11:09:13;;;;;;;10.50;6.30;;;30.00;57.20;;;;;;5017702;28;20445;-45
2022/07/21 11:11:58;;;;;;;8.17;6.00;;;30.00;57.60;;;;;;5017901;28;20450;-42
2022/07/21 11:14:41;;;;;;;5.30;4.80;;;30.10;57.80;;;;;;5017268;28;20470;-45
2022/07/21 11:17:09;;;;;;;6.60;6.00;;;30.50;57.40;;;;;;5017416;28;20529;-43
2022/07/21 11:19:41;;;;;;;9.00;5.63;;;30.80;56.80;;;;;;5017187;28;20501;-43
2022/07/21 11:22:12;;;;;;;5.87;5.33;;;31.10;56.20;;;;;;5017682;28;20414;-41
2022/07/21 11:24:44;;;;;;;10.03;5.53;;;31.20;55.80;;;;;;5017573;28;20481;-47
2022/07/21 11:27:15;;;;;;;5.30;4.90;;;31.30;55.60;;;;;;5017322;28;20438;-44
2022/07/21 11:29:45;;;;;;;5.43;4.93;;;31.20;55.70;;;;;;5017284;28;20494;-49
2022/07/21 11:32:13;;;;;;;6.70;6.10;;;31.50;55.50;;;;;;5017338;28;20457;-44
2022/07/21 11:34:46;;;;;;;7.80;6.50;;;31.90;54.80;;;;;;5017170;28;20460;-49
2022/07/21 11:37:15;;;;;;;6.77;6.10;;;32.00;54.30;;;;;;5017194;28;20493;-47
2022/07/21 11:39:42;;;;;;;6.00;5.50;;;31.90;54.50;;;;;;5016812;28;20519;-47
2022/07/21 11:42:11;;;;;;;6.70;5.90;;;31.50;55.10;;;;;;5016908;28;20497;-45
2022/07/21 11:44:38;;;;;;;6.10;5.60;;;31.20;55.50;;;;;;5017163;28;20461;-44
2022/07/21 11:47:10;;;;;;;6.03;5.53;;;30.80;55.90;;;;;;5016800;28;20522;-45
2022/07/21 11:49:37;;;;;;;5.30;4.80;;;30.70;56.60;;;;;;5016860;28;20502;-45
2022/07/21 11:52:06;;;;;;;7.53;6.77;;;30.70;57.20;;;;;;5017328;28;20452;-45
2022/07/21 11:54:34;;;;;;;6.93;6.23;;;30.60;57.40;;;;;;5017142;28;20454;-46
2022/07/21 11:57:03;;;;;;;6.50;5.90;;;30.70;57.60;;;;;;5017217;28;20502;-44
2022/07/21 11:59:31;;;;;;;6.83;6.13;;;30.70;57.60;;;;;;5017072;28;20445;-46
2022/07/21 12:02:00;;;;;;;6.03;5.43;;;30.70;57.40;;;;;;5016949;28;20446;-44
2022/07/21 12:04:44;;;;;;;7.63;5.70;;;30.50;57.80;;;;;;5016966;28;20454;-45
2022/07/21 12:07:18;;;;;;;6.13;5.63;;;30.20;58.40;;;;;;5016398;28;20506;-44
2022/07/21 12:09:47;;;;;;;8.23;6.30;;;30.00;58.70;;;;;;5016912;28;20525;-45
2022/07/21 12:12:14;;;;;;;6.97;5.77;;;29.90;59.20;;;;;;5016501;28;20469;-43
2022/07/21 12:14:46;;;;;;;6.77;6.20;;;29.80;59.40;;;;;;5016797;28;20462;-45
2022/07/21 12:17:14;;;;;;;6.00;5.50;;;29.60;59.70;;;;;;5016883;28;20471;-43
2022/07/21 12:19:43;;;;;;;6.80;5.87;;;29.40;59.90;;;;;;5016864;28;20436;-43
2022/07/21 12:22:09;;;;;;;8.27;6.27;;;29.20;60.40;;;;;;5016495;28;20513;-47
2022/07/21 12:24:57;;;;;;;5.80;5.20;;;29.10;61.10;;;;;;5016613;28;20465;-43
2022/07/21 12:27:24;;;;;;;7.10;6.37;;;29.00;61.70;;;;;;5015689;28;20479;-51
2022/07/21 12:29:51;;;;;;;6.80;6.10;;;28.90;61.60;;;;;;5016671;28;20458;-45
2022/07/21 12:32:40;;;;;;;7.10;5.47;;;28.80;62.00;;;;;;5016314;28;20591;-45
2022/07/21 12:35:18;;;;;;;8.30;6.77;;;28.70;62.20;;;;;;5016411;28;20422;-44
2022/07/21 12:38:04;;;;;;;6.40;5.80;;;28.60;62.70;;;;;;5016543;28;20529;-45
2022/07/21 12:40:32;;;;;;;5.90;5.17;;;28.60;63.50;;;;;;5016339;28;20442;-41
2022/07/21 12:43:14;;;;;;;6.40;5.80;;;28.60;64.40;;;;;;5016246;28;20469;-47
2022/07/21 12:45:53;;;;;;;7.47;5.47;;;28.40;65.30;;;;;;5016738;28;20418;-45
2022/07/21 12:48:22;;;;;;;7.20;5.50;;;28.40;66.60;;;;;;5016711;28;20493;-44
2022/07/21 12:51:12;;;;;;;7.40;6.70;;;28.40;66.90;;;;;;5016522;28;20649;-47